createdAt,value
2017-05-27T00:01:05.766Z,3.78
2017-05-27T00:03:34.192Z,3.84
2017-05-27T00:06:02.179Z,4.12
2017-05-27T00:08:30.515Z,4.08
2017-05-27T00:10:58.924Z,3.92
2017-05-27T00:13:26.873Z,3.66
2017-05-27T00:15:54.418Z,4.10
2017-05-27T00:18:22.799Z,3.96
2017-05-27T00:20:51.698Z,3.70
2017-05-27T00:23:20.371Z,3.92
2017-05-27T00:25:48.739Z,3.72
2017-05-27T00:28:17.078Z,3.90
2017-05-27T00:30:45.437Z,4.02
2017-05-27T00:33:14.396Z,3.66
2017-05-27T00:35:43.475Z,3.20
2017-05-27T00:38:11.847Z,3.80
2017-05-27T00:40:40.195Z,3.88
2017-05-27T00:45:43.259Z,3.90
2017-05-27T00:48:11.991Z,3.76
2017-05-27T00:50:40.294Z,3.30
2017-05-27T00:53:09.227Z,3.44
2017-05-27T00:55:37.904Z,3.84
2017-05-27T00:58:05.940Z,4.04
2017-05-27T01:00:34.323Z,4.82
2017-05-27T01:03:02.297Z,3.70
2017-05-27T01:05:30.247Z,3.82
2017-05-27T01:07:58.252Z,3.54
2017-05-27T01:10:26.567Z,3.76
2017-05-27T01:12:54.495Z,4.02
2017-05-27T01:15:22.479Z,4.68
2017-05-27T01:17:50.792Z,3.46
2017-05-27T01:20:19.109Z,3.98
2017-05-27T01:22:47.113Z,3.78
2017-05-27T01:25:15.462Z,3.96
2017-05-27T01:27:43.793Z,4.30
2017-05-27T01:30:12.603Z,4.38
2017-05-27T01:32:41.305Z,3.86
2017-05-27T01:35:09.626Z,3.56
2017-05-27T01:37:38.020Z,3.58
2017-05-27T01:40:05.990Z,3.54
2017-05-27T01:42:34.503Z,3.30
2017-05-27T01:45:03.093Z,4.40
2017-05-27T01:47:31.778Z,3.66
2017-05-27T01:50:00.210Z,3.92
2017-05-27T01:52:28.209Z,3.90
2017-05-27T01:54:56.560Z,4.40
2017-05-27T01:57:24.515Z,4.00
2017-05-27T01:59:52.877Z,3.80
2017-05-27T02:02:21.571Z,4.00
2017-05-27T02:04:49.899Z,4.62
2017-05-27T02:07:18.259Z,4.32
2017-05-27T02:09:46.212Z,4.60
2017-05-27T02:12:14.534Z,4.20
2017-05-27T02:14:43.284Z,3.70
2017-05-27T02:17:11.587Z,4.02
2017-05-27T02:19:39.893Z,4.64
2017-05-27T02:22:08.263Z,4.10
2017-05-27T02:24:36.576Z,4.00
2017-05-27T02:27:04.886Z,3.88
2017-05-27T02:29:34.000Z,4.18
2017-05-27T02:32:01.964Z,3.94
2017-05-27T02:34:30.335Z,4.86
2017-05-27T02:36:58.351Z,4.10
2017-05-27T02:39:26.375Z,3.96
2017-05-27T02:41:54.691Z,3.94
2017-05-27T02:44:22.699Z,4.22
2017-05-27T02:46:51.047Z,3.78
2017-05-27T02:49:19.731Z,4.82
2017-05-27T02:51:47.723Z,4.42
2017-05-27T02:54:16.061Z,4.30
2017-05-27T02:56:44.397Z,3.98
2017-05-27T02:59:13.499Z,4.86
2017-05-27T03:01:41.483Z,3.86
2017-05-27T03:04:09.424Z,3.42
2017-05-27T03:06:37.821Z,4.82
2017-05-27T03:09:06.127Z,4.90
2017-05-27T03:11:34.444Z,4.30
2017-05-27T03:14:02.804Z,4.90
2017-05-27T03:16:31.726Z,5.04
2017-05-27T03:19:00.047Z,5.72
2017-05-27T03:21:28.850Z,5.54
2017-05-27T03:23:57.187Z,5.70
2017-05-27T03:26:26.380Z,4.96
2017-05-27T03:28:54.783Z,5.14
2017-05-27T03:31:22.727Z,6.36
2017-05-27T03:33:51.395Z,5.36
2017-05-27T03:36:19.768Z,4.70
2017-05-27T03:38:48.072Z,5.58
2017-05-27T03:41:16.423Z,6.38
2017-05-27T03:43:45.539Z,6.92
2017-05-27T03:46:13.484Z,6.72
2017-05-27T03:48:41.423Z,6.16
2017-05-27T03:51:09.767Z,5.84
2017-05-27T03:53:37.699Z,4.78
2017-05-27T03:56:06.003Z,4.82
2017-05-27T03:58:33.979Z,4.78
2017-05-27T04:01:03.023Z,8.18
2017-05-27T04:03:31.360Z,12.66
2017-05-27T04:06:00.475Z,11.38
2017-05-27T04:08:28.791Z,8.20
2017-05-27T04:10:57.507Z,7.84
2017-05-27T04:13:25.500Z,5.82
2017-05-27T04:15:53.483Z,5.92
2017-05-27T04:18:21.799Z,5.88
2017-05-27T04:20:50.490Z,5.30
2017-05-27T04:23:19.183Z,5.40
2017-05-27T04:25:47.143Z,5.62
2017-05-27T04:28:15.531Z,4.88
2017-05-27T04:30:43.470Z,3.92
2017-05-27T04:33:11.408Z,5.16
2017-05-27T04:35:40.183Z,4.22
2017-05-27T04:38:09.086Z,5.00
2017-05-27T04:40:37.764Z,5.90
2017-05-27T04:43:06.643Z,4.96
2017-05-27T04:45:34.958Z,4.08
2017-05-27T04:48:03.631Z,4.30
2017-05-27T04:50:32.599Z,4.88
2017-05-27T04:53:00.927Z,4.82
2017-05-27T04:55:29.268Z,4.64
2017-05-27T04:57:57.677Z,4.70
2017-05-27T05:00:25.636Z,7.32
2017-05-27T05:02:54.104Z,7.16
2017-05-27T05:05:22.113Z,6.90
2017-05-27T05:07:50.436Z,4.98
2017-05-27T05:10:19.482Z,5.44
2017-05-27T05:12:47.478Z,4.62
2017-05-27T05:15:15.420Z,5.04
2017-05-27T05:17:43.368Z,5.40
2017-05-27T05:20:11.723Z,4.36
2017-05-27T05:22:39.656Z,4.90
2017-05-27T05:25:07.972Z,4.72
2017-05-27T05:27:36.326Z,5.78
2017-05-27T05:30:04.267Z,5.98
2017-05-27T05:32:32.962Z,6.50
2017-05-27T05:35:01.715Z,4.60
2017-05-27T05:37:30.641Z,6.34
2017-05-27T05:40:01.610Z,5.94
2017-05-27T05:42:30.574Z,7.14
2017-05-27T05:44:59.487Z,5.44
2017-05-27T05:47:28.387Z,9.16
2017-05-27T05:49:57.112Z,6.04
2017-05-27T05:52:25.057Z,6.34
2017-05-27T05:54:53.720Z,5.64
2017-05-27T05:57:23.588Z,5.82
2017-05-27T05:59:51.527Z,4.10
2017-05-27T06:02:20.469Z,5.28
2017-05-27T06:04:48.775Z,4.50
2017-05-27T06:07:17.097Z,6.40
2017-05-27T06:09:46.228Z,5.22
2017-05-27T06:12:14.552Z,6.18
2017-05-27T06:14:42.867Z,5.64
2017-05-27T06:17:10.847Z,5.44
2017-05-27T06:19:39.730Z,6.20
2017-05-27T06:22:08.407Z,6.02
2017-05-27T06:24:36.780Z,10.22
2017-05-27T06:27:04.735Z,8.66
2017-05-27T06:29:32.702Z,5.50
2017-05-27T06:32:01.063Z,5.90
2017-05-27T06:34:29.012Z,3.20
2017-05-27T06:36:58.185Z,3.40
2017-05-27T06:39:27.298Z,3.94
2017-05-27T06:41:55.255Z,4.12
2017-05-27T06:44:23.563Z,3.80
2017-05-27T06:46:51.953Z,3.74
2017-05-27T06:49:19.936Z,3.88
2017-05-27T06:51:47.911Z,3.34
2017-05-27T06:54:20.132Z,4.12
2017-05-27T06:56:48.080Z,5.32
2017-05-27T06:59:16.988Z,3.00
2017-05-27T07:01:45.123Z,3.66
2017-05-27T07:04:13.066Z,3.52
2017-05-27T07:06:41.380Z,4.50
2017-05-27T07:09:09.730Z,4.46
2017-05-27T07:11:38.788Z,4.34
2017-05-27T07:14:06.720Z,3.78
2017-05-27T07:16:35.851Z,4.48
2017-05-27T07:19:04.165Z,4.00
2017-05-27T07:21:33.211Z,3.24
2017-05-27T07:24:06.072Z,3.70
2017-05-27T07:26:34.403Z,2.94
2017-05-27T07:29:02.719Z,3.04
2017-05-27T07:31:31.807Z,2.98
2017-05-27T07:34:00.143Z,2.86
2017-05-27T07:36:28.094Z,5.06
2017-05-27T07:38:56.498Z,5.38
2017-05-27T07:41:24.899Z,4.18
2017-05-27T07:43:52.835Z,4.56
2017-05-27T07:46:21.191Z,5.80
2017-05-27T07:48:49.495Z,3.98
2017-05-27T07:51:17.803Z,5.30
2017-05-27T07:53:46.547Z,5.22
2017-05-27T07:56:14.490Z,4.20
2017-05-27T07:58:42.795Z,4.24
2017-05-27T08:01:10.772Z,3.66
2017-05-27T08:03:39.079Z,4.78
2017-05-27T08:06:07.006Z,5.62
2017-05-27T08:08:35.371Z,5.50
2017-05-27T08:11:03.312Z,5.14
2017-05-27T08:13:31.631Z,5.70
2017-05-27T08:16:00.031Z,5.28
2017-05-27T08:18:28.348Z,5.40
2017-05-27T08:20:56.307Z,3.98
2017-05-27T08:23:24.669Z,3.40
2017-05-27T08:25:52.604Z,5.78
2017-05-27T08:28:21.345Z,4.28
2017-05-27T08:30:49.340Z,3.66
2017-05-27T08:36:11.878Z,6.58
2017-05-27T08:38:40.212Z,13.34
2017-05-27T08:41:08.518Z,5.86
2017-05-27T08:43:36.894Z,6.82
2017-05-27T08:46:05.195Z,5.40
2017-05-27T08:48:33.142Z,12.20
2017-05-27T08:51:01.147Z,9.36
2017-05-27T08:53:29.836Z,4.76
2017-05-27T08:55:57.805Z,4.14
2017-05-27T08:58:26.459Z,3.76
2017-05-27T09:00:54.768Z,5.04
2017-05-27T09:03:23.675Z,4.08
2017-05-27T09:05:51.660Z,3.60
2017-05-27T09:08:19.967Z,4.12
2017-05-27T09:10:47.899Z,5.28
2017-05-27T09:13:16.262Z,4.80
2017-05-27T09:15:44.211Z,5.34
2017-05-27T09:21:06.399Z,2.74
2017-05-27T09:23:34.717Z,2.58
2017-05-27T09:26:02.711Z,3.08
2017-05-27T09:28:30.650Z,3.24
2017-05-27T09:30:58.987Z,2.38
2017-05-27T09:33:26.979Z,3.38
2017-05-27T09:35:55.307Z,4.56
2017-05-27T09:38:23.248Z,2.70
2017-05-27T09:40:51.971Z,3.10
2017-05-27T09:43:19.907Z,5.82
2017-05-27T09:45:48.215Z,3.38
2017-05-27T09:48:16.610Z,2.70
2017-05-27T09:50:44.546Z,3.48
2017-05-27T09:53:12.850Z,3.70
2017-05-27T09:55:41.195Z,4.08
2017-05-27T09:58:10.242Z,4.68
2017-05-27T10:00:38.178Z,3.54
2017-05-27T10:03:06.535Z,3.64
2017-05-27T10:05:34.481Z,4.56
2017-05-27T10:08:02.423Z,3.74
2017-05-27T10:10:30.803Z,2.80
2017-05-27T10:12:59.132Z,2.82
2017-05-27T10:15:27.090Z,3.56
2017-05-27T10:17:55.446Z,3.20
2017-05-27T10:20:23.375Z,7.40
2017-05-27T10:22:51.676Z,4.50
2017-05-27T10:25:20.033Z,3.70
2017-05-27T10:27:48.334Z,4.36
2017-05-27T10:30:16.289Z,4.28
2017-05-27T10:32:44.657Z,2.64
2017-05-27T10:35:13.694Z,2.02
2017-05-27T10:37:41.994Z,2.96
2017-05-27T10:40:09.970Z,3.78
2017-05-27T10:42:38.846Z,2.88
2017-05-27T10:45:07.726Z,2.78
2017-05-27T10:47:36.447Z,3.74
2017-05-27T10:50:04.384Z,6.56
2017-05-27T10:52:32.766Z,3.72
2017-05-27T10:55:00.732Z,2.70
2017-05-27T10:57:29.045Z,2.62
2017-05-27T10:59:57.369Z,4.68
2017-05-27T11:02:25.342Z,2.74
2017-05-27T11:04:53.639Z,3.86
2017-05-27T11:07:21.944Z,3.82
2017-05-27T11:09:50.304Z,3.40
2017-05-27T11:12:18.231Z,3.92
2017-05-27T11:14:47.117Z,5.74
2017-05-27T11:17:16.077Z,4.30
2017-05-27T11:19:44.006Z,5.60
2017-05-27T11:22:12.882Z,3.68
2017-05-27T11:24:41.963Z,5.22
2017-05-27T11:27:10.262Z,5.20
2017-05-27T11:29:38.194Z,4.08
2017-05-27T11:32:06.177Z,4.32
2017-05-27T11:34:34.475Z,4.52
2017-05-27T11:37:02.780Z,2.92
2017-05-27T11:39:30.771Z,3.08
2017-05-27T11:41:59.088Z,2.82
2017-05-27T11:44:27.413Z,3.52
2017-05-27T11:46:55.754Z,4.10
2017-05-27T11:49:24.050Z,3.78
2017-05-27T11:51:51.975Z,6.22
2017-05-27T11:54:20.317Z,3.32
2017-05-27T11:56:49.356Z,3.94
2017-05-27T11:59:18.231Z,3.90
2017-05-27T12:01:47.299Z,2.88
2017-05-27T12:04:15.971Z,2.68
2017-05-27T12:06:43.899Z,4.24
2017-05-27T12:09:12.247Z,3.74
2017-05-27T12:11:41.083Z,2.98
2017-05-27T12:14:09.970Z,2.90
2017-05-27T12:16:38.314Z,2.70
2017-05-27T12:19:06.610Z,1.82
2017-05-27T12:21:34.903Z,1.96
2017-05-27T12:24:03.266Z,1.54
2017-05-27T12:26:32.157Z,2.50
2017-05-27T12:29:01.042Z,2.68
2017-05-27T12:31:29.764Z,3.00
2017-05-27T12:33:58.064Z,2.48
2017-05-27T12:36:25.994Z,2.34
2017-05-27T12:38:54.934Z,2.38
2017-05-27T12:41:23.599Z,1.68
2017-05-27T12:43:51.894Z,4.40
2017-05-27T12:46:21.103Z,6.00
2017-05-27T12:48:49.767Z,4.58
2017-05-27T12:51:18.187Z,3.84
2017-05-27T12:53:47.119Z,2.78
2017-05-27T12:56:16.158Z,3.22
2017-05-27T12:58:44.450Z,2.06
2017-05-27T13:01:12.423Z,2.30
2017-05-27T13:03:40.718Z,3.58
2017-05-27T13:06:09.015Z,2.76
2017-05-27T13:08:37.791Z,1.90
2017-05-27T13:11:06.664Z,4.90
2017-05-27T13:13:35.707Z,6.78
2017-05-27T13:16:04.085Z,3.18
2017-05-27T13:18:33.130Z,2.68
2017-05-27T13:21:01.060Z,5.30
2017-05-27T13:23:29.616Z,2.24
2017-05-27T13:25:57.550Z,3.14
2017-05-27T13:28:25.484Z,3.42
2017-05-27T13:30:53.828Z,3.02
2017-05-27T13:33:21.754Z,2.60
2017-05-27T13:35:50.419Z,2.30
2017-05-27T13:38:18.763Z,3.18
2017-05-27T13:40:47.067Z,4.18
2017-05-27T13:43:15.954Z,3.68
2017-05-27T13:45:45.041Z,3.72
2017-05-27T13:48:12.979Z,3.80
2017-05-27T13:50:42.378Z,4.86
2017-05-27T13:53:11.470Z,4.56
2017-05-27T13:55:39.391Z,3.94
2017-05-27T13:58:07.687Z,6.84
2017-05-27T14:00:38.523Z,4.66
2017-05-27T14:03:07.447Z,3.14
2017-05-27T14:05:35.371Z,2.80
2017-05-27T14:08:03.699Z,3.20
2017-05-27T14:10:31.660Z,2.66
2017-05-27T14:13:00.538Z,2.14
2017-05-27T14:15:29.459Z,2.74
2017-05-27T14:17:57.820Z,3.40
2017-05-27T14:20:25.743Z,3.10
2017-05-27T14:22:54.041Z,3.70
2017-05-27T14:25:22.398Z,2.48
2017-05-27T14:27:50.696Z,3.76
2017-05-27T14:30:18.859Z,5.08
2017-05-27T14:32:47.170Z,9.20
2017-05-27T14:35:15.474Z,3.46
2017-05-27T14:37:44.559Z,6.40
2017-05-27T14:40:12.883Z,4.18
2017-05-27T14:42:40.808Z,4.38
2017-05-27T14:45:09.303Z,5.24
2017-05-27T14:47:37.226Z,3.22
2017-05-27T14:50:06.146Z,3.28
2017-05-27T14:52:35.108Z,3.36
2017-05-27T14:55:04.154Z,2.42
2017-05-27T14:57:33.039Z,3.20
2017-05-27T15:00:01.776Z,3.22
2017-05-27T15:02:29.742Z,4.82
2017-05-27T15:04:58.072Z,3.36
2017-05-27T15:07:26.471Z,3.52
2017-05-27T15:09:54.779Z,3.92
2017-05-27T15:12:22.704Z,4.38
2017-05-27T15:14:51.047Z,4.26
2017-05-27T15:17:19.926Z,2.98
2017-05-27T15:19:48.601Z,3.48
2017-05-27T15:22:16.587Z,3.34
2017-05-27T15:24:45.489Z,4.34
2017-05-27T15:27:14.275Z,2.80
2017-05-27T15:29:43.008Z,4.04
2017-05-27T15:32:11.304Z,3.32
2017-05-27T15:34:39.227Z,2.50
2017-05-27T15:37:07.566Z,2.44
2017-05-27T15:39:35.499Z,2.32
2017-05-27T15:42:03.423Z,4.10
2017-05-27T15:44:32.572Z,3.78
2017-05-27T15:47:01.470Z,5.18
2017-05-27T15:49:30.142Z,4.22
2017-05-27T15:51:58.491Z,2.40
2017-05-27T15:54:26.809Z,3.22
2017-05-27T15:56:54.734Z,3.18
2017-05-27T15:59:23.078Z,2.70
2017-05-27T16:01:51.380Z,2.50
2017-05-27T16:04:19.313Z,3.82
2017-05-27T16:06:47.722Z,4.30
2017-05-27T16:09:16.634Z,3.88
2017-05-27T16:11:44.935Z,3.62
2017-05-27T16:14:12.931Z,3.14
2017-05-27T16:16:41.231Z,3.00
2017-05-27T16:19:09.163Z,5.56
2017-05-27T16:21:37.531Z,5.18
2017-05-27T16:24:06.455Z,3.66
2017-05-27T16:26:35.490Z,3.86
2017-05-27T16:29:03.907Z,4.02
2017-05-27T16:31:32.190Z,6.90
2017-05-27T16:34:00.495Z,7.66
2017-05-27T16:36:28.499Z,7.28
2017-05-27T16:38:57.384Z,2.86
2017-05-27T16:41:26.101Z,4.06
2017-05-27T16:43:55.215Z,5.48
2017-05-27T16:46:23.510Z,3.80
2017-05-27T16:49:00.318Z,2.80
2017-05-27T16:51:28.253Z,3.06
2017-05-27T16:53:57.140Z,3.06
2017-05-27T16:56:25.122Z,3.08
2017-05-27T16:58:53.050Z,2.44
2017-05-27T17:01:21.726Z,3.18
2017-05-27T17:03:50.107Z,3.42
2017-05-27T17:06:18.983Z,3.38
2017-05-27T17:08:47.655Z,3.52
2017-05-27T17:11:16.020Z,3.40
2017-05-27T17:13:43.967Z,3.12
2017-05-27T17:16:12.848Z,2.64
2017-05-27T17:18:41.191Z,2.92
2017-05-27T17:21:10.074Z,2.90
2017-05-27T17:23:39.115Z,3.70
2017-05-27T17:26:08.051Z,4.50
2017-05-27T17:28:36.943Z,4.24
2017-05-27T17:31:05.607Z,3.02
2017-05-27T17:33:33.976Z,3.32
2017-05-27T17:36:02.654Z,3.30
2017-05-27T17:38:31.531Z,3.90
2017-05-27T17:40:59.927Z,3.20
2017-05-27T17:43:28.823Z,5.38
2017-05-27T17:45:57.505Z,3.38
2017-05-27T17:48:25.860Z,3.82
2017-05-27T17:50:54.163Z,3.82
2017-05-27T17:53:23.043Z,3.62
2017-05-27T17:55:52.143Z,3.82
2017-05-27T17:58:20.071Z,3.24
2017-05-27T18:00:48.371Z,4.76
2017-05-27T18:03:16.751Z,4.06
2017-05-27T18:05:44.675Z,4.48
2017-05-27T18:08:12.979Z,4.32
2017-05-27T18:10:41.380Z,3.38
2017-05-27T18:13:09.309Z,3.92
2017-05-27T18:15:38.343Z,3.82
2017-05-27T18:18:06.739Z,3.60
2017-05-27T18:20:34.667Z,3.60
2017-05-27T18:23:02.967Z,4.06
2017-05-27T18:25:30.941Z,3.62
2017-05-27T18:27:59.616Z,3.40
2017-05-27T18:30:28.503Z,3.56
2017-05-27T18:32:57.376Z,4.88
2017-05-27T18:35:26.418Z,4.50
2017-05-27T18:37:55.299Z,7.70
2017-05-27T18:40:24.013Z,6.58
2017-05-27T18:42:52.311Z,7.36
2017-05-27T18:45:20.611Z,4.58
2017-05-27T18:47:48.580Z,4.16
2017-05-27T18:50:16.879Z,3.28
2017-05-27T18:52:45.175Z,3.60
2017-05-27T18:55:13.779Z,3.72
2017-05-27T18:57:42.448Z,3.70
2017-05-27T19:00:10.393Z,4.22
2017-05-27T19:02:39.900Z,4.20
2017-05-27T19:05:08.566Z,3.60
2017-05-27T19:07:36.864Z,3.50
2017-05-27T19:10:04.835Z,4.68
2017-05-27T19:12:33.140Z,3.72
2017-05-27T19:15:01.077Z,3.84
2017-05-27T19:17:29.438Z,4.76
2017-05-27T19:19:57.730Z,3.80
2017-05-27T19:22:26.026Z,3.98
2017-05-27T19:24:54.371Z,3.48
2017-05-27T19:27:22.300Z,4.44
2017-05-27T19:29:50.596Z,4.62
2017-05-27T19:32:18.963Z,5.54
2017-05-27T19:34:47.263Z,4.98
2017-05-27T19:37:15.195Z,4.52
2017-05-27T19:39:44.298Z,4.62
2017-05-27T19:42:12.226Z,4.12
2017-05-27T19:44:40.531Z,11.20
2017-05-27T19:47:08.964Z,12.98
2017-05-27T19:49:37.838Z,7.58
2017-05-27T19:52:06.879Z,5.94
2017-05-27T19:54:35.250Z,4.62
2017-05-27T19:57:03.187Z,4.80
2017-05-27T19:59:31.516Z,4.22
2017-05-27T20:01:59.498Z,4.42
2017-05-27T20:04:28.388Z,4.52
2017-05-27T20:06:57.282Z,3.96
2017-05-27T20:09:26.377Z,4.96
2017-05-27T20:11:55.051Z,3.96
2017-05-27T20:14:23.722Z,4.98
2017-05-27T20:16:52.071Z,4.84
2017-05-27T20:19:20.003Z,6.24
2017-05-27T20:21:48.887Z,4.70
2017-05-27T20:24:17.982Z,7.26
2017-05-27T20:26:46.287Z,5.68
2017-05-27T20:29:14.586Z,5.84
2017-05-27T20:31:42.559Z,6.66
2017-05-27T20:34:10.494Z,8.28
2017-05-27T20:36:38.800Z,10.44
2017-05-27T20:39:07.239Z,9.80
2017-05-27T20:41:35.166Z,7.78
2017-05-27T20:44:03.467Z,7.66
2017-05-27T20:46:32.223Z,9.48
2017-05-27T20:49:00.163Z,9.36
2017-05-27T20:51:28.472Z,17.54
2017-05-27T20:53:57.190Z,13.40
2017-05-27T20:56:26.090Z,13.90
2017-05-27T20:58:54.391Z,10.12
2017-05-27T21:01:23.334Z,11.00
2017-05-27T21:03:52.220Z,11.10
2017-05-27T21:06:20.152Z,11.08
2017-05-27T21:08:49.083Z,14.46
2017-05-27T21:11:17.984Z,13.18
2017-05-27T21:13:46.293Z,12.32
2017-05-27T21:16:14.656Z,27.72
2017-05-27T21:18:42.587Z,24.56
2017-05-27T21:21:10.896Z,12.54
2017-05-27T21:23:39.251Z,10.00
2017-05-27T21:26:07.551Z,6.94
2017-05-27T21:28:35.855Z,8.46
2017-05-27T21:31:04.221Z,10.20
2017-05-27T21:33:32.147Z,8.28
2017-05-27T21:36:01.034Z,7.92
2017-05-27T21:38:29.837Z,7.02
2017-05-27T21:40:57.771Z,5.94
2017-05-27T21:43:25.696Z,5.72
2017-05-27T21:45:54.038Z,6.86
2017-05-27T21:48:22.343Z,4.90
2017-05-27T21:50:50.276Z,5.44
2017-05-27T21:53:18.254Z,6.46
2017-05-27T21:55:46.555Z,7.00
2017-05-27T21:58:15.232Z,6.38
2017-05-27T22:00:43.679Z,7.22
2017-05-27T22:03:11.983Z,6.98
2017-05-27T22:05:41.023Z,7.52
2017-05-27T22:08:09.735Z,7.66
2017-05-27T22:10:38.042Z,11.30
2017-05-27T22:13:05.975Z,9.04
2017-05-27T22:15:36.594Z,9.20
2017-05-27T22:18:05.275Z,10.08
2017-05-27T22:20:34.160Z,9.80
2017-05-27T22:23:03.920Z,9.54
2017-05-27T22:25:31.861Z,6.88
2017-05-27T22:27:59.797Z,4.76
2017-05-27T22:30:28.508Z,5.10
2017-05-27T22:32:56.813Z,4.48
2017-05-27T22:35:25.111Z,4.24
2017-05-27T22:37:54.218Z,4.28
2017-05-27T22:40:22.888Z,4.28
2017-05-27T22:42:51.192Z,4.84
2017-05-27T22:45:19.687Z,4.40
2017-05-27T22:47:47.619Z,4.22
2017-05-27T22:50:15.932Z,4.60
2017-05-27T22:52:44.900Z,4.54
2017-05-27T22:55:12.831Z,5.08
2017-05-27T22:57:41.136Z,5.48
2017-05-27T23:00:09.630Z,5.92
2017-05-27T23:02:37.559Z,5.20
2017-05-27T23:05:05.487Z,5.52
2017-05-27T23:07:33.852Z,4.40
2017-05-27T23:10:02.167Z,5.32
2017-05-27T23:12:30.472Z,5.02
2017-05-27T23:14:59.428Z,5.32
2017-05-27T23:17:28.105Z,4.90
2017-05-27T23:19:56.035Z,4.30
2017-05-27T23:22:24.973Z,5.06
2017-05-27T23:24:53.267Z,5.40
2017-05-27T23:27:21.564Z,5.34
2017-05-27T23:29:49.546Z,5.20
2017-05-27T23:32:17.492Z,5.88
2017-05-27T23:34:45.800Z,6.58
2017-05-27T23:37:14.147Z,6.66
2017-05-27T23:39:42.072Z,6.54
2017-05-27T23:42:10.369Z,5.82
2017-05-27T23:44:38.695Z,7.60
2017-05-27T23:47:06.624Z,6.74
2017-05-27T23:49:35.671Z,7.30
2017-05-27T23:52:04.048Z,6.28
2017-05-27T23:54:32.927Z,7.00
2017-05-27T23:57:01.967Z,7.14
2017-05-27T23:59:29.941Z,7.06
